createdAt,value
2019-04-04T00:02:17.109Z,10.54
2019-04-04T00:04:44.137Z,10.45
2019-04-04T00:07:10.295Z,10.38
2019-04-04T00:09:36.484Z,10.31
2019-04-04T00:12:02.883Z,10.26
2019-04-04T00:14:29.140Z,10.22
2019-04-04T00:16:55.337Z,10.17
2019-04-04T00:19:21.553Z,10.13
2019-04-04T00:21:47.703Z,10.08
2019-04-04T00:24:14.082Z,10.02
2019-04-04T00:26:42.019Z,9.99
2019-04-04T00:29:09.034Z,10.00
2019-04-04T00:31:35.195Z,9.97
2019-04-04T00:34:01.407Z,9.95
2019-04-04T00:36:27.553Z,9.90
2019-04-04T00:38:53.879Z,9.87
2019-04-04T00:41:20.004Z,9.87
2019-04-04T00:43:46.267Z,9.82
2019-04-04T00:46:12.437Z,9.76
2019-04-04T00:48:38.664Z,9.71
2019-04-04T00:51:07.606Z,9.66
2019-04-04T00:53:33.217Z,9.61
2019-04-04T00:55:59.336Z,9.57
2019-04-04T00:58:25.555Z,9.52
2019-04-04T01:00:52.943Z,9.46
2019-04-04T01:03:19.804Z,9.42
2019-04-04T01:05:45.910Z,9.38
2019-04-04T01:08:12.135Z,9.42
2019-04-04T01:10:38.254Z,9.41
2019-04-04T01:13:04.719Z,9.43
2019-04-04T01:15:31.110Z,9.42
2019-04-04T01:17:58.169Z,9.43
2019-04-04T01:20:24.366Z,9.49
2019-04-04T01:22:51.698Z,9.51
2019-04-04T01:25:17.865Z,9.53
2019-04-04T01:27:44.044Z,9.53
2019-04-04T01:30:12.514Z,9.48
2019-04-04T01:32:38.435Z,9.39
2019-04-04T01:35:06.414Z,9.28
2019-04-04T01:37:33.812Z,9.19
2019-04-04T01:40:02.068Z,9.12
2019-04-04T01:42:28.160Z,9.07
2019-04-04T01:44:54.313Z,9.05
2019-04-04T01:47:20.565Z,9.02
2019-04-04T01:49:46.683Z,8.98
2019-04-04T01:52:12.888Z,8.94
2019-04-04T01:54:39.103Z,8.89
2019-04-04T01:57:07.820Z,8.80
2019-04-04T01:59:33.464Z,8.72
2019-04-04T02:01:59.647Z,8.67
2019-04-04T02:04:25.863Z,8.62
2019-04-04T02:06:52.027Z,8.58
2019-04-04T02:09:18.284Z,8.51
2019-04-04T02:11:44.442Z,8.44
2019-04-04T02:14:11.898Z,8.38
2019-04-04T02:16:38.783Z,8.26
2019-04-04T02:19:05.075Z,8.17
2019-04-04T02:21:31.271Z,8.08
2019-04-04T02:23:57.463Z,7.98
2019-04-04T02:26:23.937Z,7.90
2019-04-04T02:28:50.295Z,7.82
2019-04-04T02:31:20.606Z,7.72
2019-04-04T02:33:45.336Z,7.70
2019-04-04T02:36:16.166Z,7.67
2019-04-04T02:38:39.716Z,7.63
2019-04-04T02:41:05.977Z,7.66
2019-04-04T02:43:32.257Z,7.65
2019-04-04T02:45:59.616Z,7.55
2019-04-04T02:48:25.814Z,7.48
2019-04-04T02:50:51.973Z,7.42
2019-04-04T02:53:20.313Z,7.39
2019-04-04T02:55:46.201Z,7.42
2019-04-04T02:58:15.053Z,7.47
2019-04-04T03:00:40.475Z,7.52
2019-04-04T03:03:09.154Z,7.54
2019-04-04T03:05:34.971Z,7.61
2019-04-04T03:08:04.235Z,7.71
2019-04-04T03:10:29.499Z,7.82
2019-04-04T03:12:58.692Z,7.87
2019-04-04T03:15:23.893Z,7.93
2019-04-04T03:17:50.155Z,7.93
2019-04-04T03:20:17.466Z,7.98
2019-04-04T03:22:44.074Z,8.02
2019-04-04T03:25:14.454Z,8.07
2019-04-04T03:27:38.516Z,8.09
2019-04-04T03:30:13.548Z,8.00
2019-04-04T03:32:34.358Z,8.00
2019-04-04T03:35:00.728Z,8.01
2019-04-04T03:37:26.873Z,8.04
2019-04-04T03:39:53.537Z,8.03
2019-04-04T03:42:19.786Z,7.98
2019-04-04T03:44:46.003Z,7.93
2019-04-04T03:47:12.111Z,7.87
2019-04-04T03:49:38.360Z,7.81
2019-04-04T03:52:04.709Z,7.69
2019-04-04T03:54:30.845Z,7.60
2019-04-04T03:56:57.074Z,7.50
2019-04-04T03:59:23.227Z,7.31
2019-04-04T04:01:49.730Z,7.11
2019-04-04T04:04:15.894Z,6.88
2019-04-04T04:06:43.076Z,6.70
2019-04-04T04:09:09.423Z,6.52
2019-04-04T04:11:37.499Z,6.41
2019-04-04T04:14:03.717Z,6.37
2019-04-04T04:16:29.881Z,6.35
2019-04-04T04:18:56.038Z,6.30
2019-04-04T04:21:22.188Z,6.21
2019-04-04T04:23:50.022Z,6.13
2019-04-04T04:26:16.628Z,6.02
2019-04-04T04:28:42.845Z,5.93
2019-04-04T04:31:09.044Z,5.83
2019-04-04T04:33:35.208Z,5.76
2019-04-04T04:36:01.359Z,5.68
2019-04-04T04:38:27.536Z,5.60
2019-04-04T04:40:53.741Z,5.56
2019-04-04T04:43:19.855Z,5.49
2019-04-04T04:45:46.160Z,5.44
2019-04-04T04:48:12.261Z,5.45
2019-04-04T04:50:40.465Z,5.47
2019-04-04T04:53:06.466Z,5.36
2019-04-04T04:55:32.741Z,5.28
2019-04-04T04:57:58.898Z,5.19
2019-04-04T05:00:27.789Z,5.12
2019-04-04T05:02:53.803Z,5.12
2019-04-04T05:05:20.030Z,5.13
2019-04-04T05:07:46.270Z,5.21
2019-04-04T05:10:12.959Z,5.22
2019-04-04T05:12:41.318Z,5.26
2019-04-04T05:15:07.696Z,5.29
2019-04-04T05:17:33.946Z,5.35
2019-04-04T05:20:00.242Z,5.36
2019-04-04T05:22:26.478Z,5.38
2019-04-04T05:25:07.109Z,5.42
2019-04-04T05:27:20.949Z,5.44
2019-04-04T05:29:47.634Z,5.47
2019-04-04T05:32:13.852Z,5.51
2019-04-04T05:34:40.193Z,5.56
2019-04-04T05:37:07.275Z,5.64
2019-04-04T05:39:35.233Z,5.72
2019-04-04T05:42:01.310Z,5.79
2019-04-04T05:44:27.530Z,5.85
2019-04-04T05:46:53.618Z,5.92
2019-04-04T05:49:19.842Z,5.97
2019-04-04T05:51:46.315Z,6.00
2019-04-04T05:54:14.132Z,6.04
2019-04-04T05:56:40.220Z,6.12
2019-04-04T05:59:06.942Z,6.20
2019-04-04T06:01:35.325Z,6.33
2019-04-04T06:04:03.821Z,6.45
2019-04-04T06:06:31.168Z,6.58
2019-04-04T06:08:58.434Z,6.71
2019-04-04T06:11:24.731Z,6.84
2019-04-04T06:13:50.838Z,6.93
2019-04-04T06:16:17.040Z,7.07
2019-04-04T06:18:43.638Z,7.21
2019-04-04T06:21:09.872Z,7.33
2019-04-04T06:23:36.024Z,7.54
2019-04-04T06:26:06.336Z,7.76
2019-04-04T06:28:30.457Z,7.92
2019-04-04T06:30:56.624Z,8.04
2019-04-04T06:33:23.928Z,8.16
2019-04-04T06:35:50.142Z,8.30
2019-04-04T06:38:17.315Z,8.42
2019-04-04T06:40:43.514Z,8.50
2019-04-04T06:43:11.524Z,8.57
2019-04-04T06:45:37.731Z,8.62
2019-04-04T06:48:04.046Z,8.66
2019-04-04T06:50:30.189Z,8.69
2019-04-04T06:52:56.772Z,8.69
2019-04-04T06:55:23.105Z,8.69
2019-04-04T06:57:51.251Z,8.72
2019-04-04T07:00:17.901Z,8.78
2019-04-04T07:02:44.062Z,8.80
2019-04-04T07:05:10.975Z,8.82
2019-04-04T07:07:37.327Z,8.84
2019-04-04T07:10:04.331Z,8.86
2019-04-04T07:12:31.575Z,8.95
2019-04-04T07:14:57.802Z,8.98
2019-04-04T07:17:24.246Z,9.07
2019-04-04T07:19:50.568Z,9.15
2019-04-04T07:22:16.675Z,9.20
2019-04-04T07:24:42.883Z,9.23
2019-04-04T07:27:09.025Z,9.29
2019-04-04T07:29:35.216Z,9.38
2019-04-04T07:32:01.311Z,9.44
2019-04-04T07:34:27.528Z,9.47
2019-04-04T07:36:53.653Z,9.53
2019-04-04T07:39:19.889Z,9.73
2019-04-04T07:41:45.984Z,9.80
2019-04-04T07:44:12.246Z,9.88
2019-04-04T07:46:40.910Z,9.99
2019-04-04T07:49:06.477Z,10.08
2019-04-04T07:51:32.652Z,10.13
2019-04-04T07:53:58.830Z,10.17
2019-04-04T07:56:25.083Z,10.21
2019-04-04T07:58:51.227Z,10.28
2019-04-04T08:01:17.540Z,10.34
2019-04-04T08:03:43.630Z,10.41
2019-04-04T08:06:09.833Z,10.59
2019-04-04T08:08:35.995Z,10.81
2019-04-04T08:11:02.459Z,10.93
2019-04-04T08:13:28.722Z,11.02
2019-04-04T08:15:56.369Z,11.12
2019-04-04T08:18:22.654Z,11.33
2019-04-04T08:20:48.857Z,11.52
2019-04-04T08:23:15.195Z,11.65
2019-04-04T08:25:41.332Z,11.84
2019-04-04T08:28:07.568Z,12.05
2019-04-04T08:30:33.833Z,12.20
2019-04-04T08:33:00.111Z,12.41
2019-04-04T08:35:26.210Z,12.53
2019-04-04T08:37:52.517Z,12.70
2019-04-04T08:40:18.780Z,12.81
2019-04-04T08:42:44.990Z,12.95
2019-04-04T08:45:12.361Z,13.07
2019-04-04T08:47:38.574Z,13.25
2019-04-04T08:50:05.338Z,13.42
2019-04-04T08:52:31.578Z,13.57
2019-04-04T08:54:57.920Z,13.62
2019-04-04T08:57:24.398Z,13.75
2019-04-04T08:59:50.582Z,13.86
2019-04-04T09:02:16.836Z,13.99
2019-04-04T09:04:43.006Z,14.15
2019-04-04T09:07:09.099Z,14.34
2019-04-04T09:09:35.331Z,14.54
2019-04-04T09:12:01.682Z,14.69
2019-04-04T09:14:27.854Z,14.94
2019-04-04T09:16:54.143Z,15.10
2019-04-04T09:19:20.420Z,15.30
2019-04-04T09:21:46.639Z,15.56
2019-04-04T09:24:13.412Z,15.75
2019-04-04T09:26:39.754Z,15.90
2019-04-04T09:29:05.850Z,16.00
2019-04-04T09:31:32.039Z,16.21
2019-04-04T09:33:58.127Z,16.41
2019-04-04T09:36:24.724Z,16.63
2019-04-04T09:38:51.888Z,16.75
2019-04-04T09:41:18.209Z,16.86
2019-04-04T09:43:45.402Z,17.00
2019-04-04T09:46:11.594Z,17.26
2019-04-04T09:48:37.732Z,17.43
2019-04-04T09:51:03.895Z,17.55
2019-04-04T09:53:30.060Z,17.75
2019-04-04T09:55:56.299Z,17.84
2019-04-04T09:58:22.408Z,17.97
2019-04-04T10:00:49.830Z,18.23
2019-04-04T10:03:15.987Z,18.59
2019-04-04T10:05:42.133Z,18.78
2019-04-04T10:08:08.475Z,19.24
2019-04-04T10:10:34.762Z,19.53
2019-04-04T10:13:00.926Z,19.53
2019-04-04T10:15:27.208Z,19.31
2019-04-04T10:17:53.383Z,19.34
2019-04-04T10:20:19.523Z,19.63
2019-04-04T10:22:45.732Z,19.82
2019-04-04T10:25:12.174Z,19.97
2019-04-04T10:27:38.368Z,20.16
2019-04-04T10:30:08.113Z,19.97
2019-04-04T10:32:34.478Z,19.84
2019-04-04T10:35:00.879Z,20.07
2019-04-04T10:37:27.156Z,20.23
2019-04-04T10:39:53.640Z,20.58
2019-04-04T10:42:19.851Z,21.01
2019-04-04T10:44:47.261Z,21.84
2019-04-04T10:47:13.451Z,22.83
2019-04-04T10:49:39.666Z,23.85
2019-04-04T10:52:05.922Z,24.60
2019-04-04T10:54:32.140Z,25.41
2019-04-04T10:56:58.396Z,26.09
2019-04-04T10:59:24.771Z,26.34
2019-04-04T11:01:50.927Z,26.74
2019-04-04T11:04:17.114Z,27.44
2019-04-04T11:06:43.279Z,27.99
2019-04-04T11:09:09.664Z,28.20
2019-04-04T11:11:36.036Z,28.69
2019-04-04T11:14:02.431Z,28.87
2019-04-04T11:16:30.402Z,29.42
2019-04-04T11:18:56.644Z,29.83
2019-04-04T11:21:23.008Z,30.32
2019-04-04T11:23:49.263Z,30.93
2019-04-04T11:26:15.522Z,30.64
2019-04-04T11:28:41.796Z,30.38
2019-04-04T11:31:08.161Z,29.66
2019-04-04T11:33:34.465Z,29.58
2019-04-04T11:36:00.641Z,30.01
2019-04-04T11:38:26.954Z,29.73
2019-04-04T11:40:53.132Z,29.54
2019-04-04T11:43:19.323Z,28.97
2019-04-04T11:45:45.481Z,29.45
2019-04-04T11:48:11.659Z,29.54
2019-04-04T11:50:39.747Z,29.27
2019-04-04T11:53:05.863Z,29.45
2019-04-04T11:55:32.026Z,30.34
2019-04-04T11:57:58.301Z,30.08
2019-04-04T12:00:26.419Z,30.64
2019-04-04T12:02:52.563Z,31.01
2019-04-04T12:05:18.812Z,30.91
2019-04-04T12:07:44.918Z,31.47
2019-04-04T12:10:11.518Z,32.02
2019-04-04T12:12:37.828Z,32.59
2019-04-04T12:15:05.834Z,32.20
2019-04-04T12:17:32.210Z,31.84
2019-04-04T12:19:58.439Z,31.65
2019-04-04T12:22:24.827Z,32.38
2019-04-04T12:24:51.285Z,33.30
2019-04-04T12:27:17.458Z,32.59
2019-04-04T12:29:43.734Z,32.05
2019-04-04T12:32:10.369Z,31.71
2019-04-04T12:34:36.813Z,32.04
2019-04-04T12:37:03.164Z,31.70
2019-04-04T12:39:29.431Z,32.43
2019-04-04T12:41:55.624Z,32.34
2019-04-04T12:44:21.753Z,32.52
2019-04-04T12:46:48.115Z,33.23
2019-04-04T12:49:14.288Z,33.68
2019-04-04T12:51:40.527Z,33.44
2019-04-04T12:54:06.874Z,33.39
2019-04-04T12:56:33.139Z,33.57
2019-04-04T12:58:59.343Z,34.02
2019-04-04T13:01:25.447Z,34.60
2019-04-04T13:03:51.681Z,34.64
2019-04-04T13:06:18.774Z,34.18
2019-04-04T13:08:44.997Z,34.35
2019-04-04T13:11:11.162Z,34.84
2019-04-04T13:13:38.360Z,34.94
2019-04-04T13:16:05.743Z,34.53
2019-04-04T13:18:32.020Z,33.54
2019-04-04T13:20:58.332Z,34.01
2019-04-04T13:23:24.659Z,34.39
2019-04-04T13:25:50.872Z,34.95
2019-04-04T13:28:17.037Z,35.27
2019-04-04T13:30:43.198Z,34.53
2019-04-04T13:33:09.365Z,34.08
2019-04-04T13:35:37.560Z,33.60
2019-04-04T13:38:03.988Z,32.40
2019-04-04T13:40:30.181Z,32.01
2019-04-04T13:42:56.405Z,31.93
2019-04-04T13:45:24.756Z,32.37
2019-04-04T13:47:50.630Z,31.60
2019-04-04T13:50:20.450Z,31.79
2019-04-04T13:52:46.648Z,31.70
2019-04-04T13:55:12.835Z,31.47
2019-04-04T13:57:39.571Z,31.30
2019-04-04T14:00:08.093Z,31.31
2019-04-04T14:02:34.469Z,31.49
2019-04-04T14:05:09.792Z,30.73
2019-04-04T14:07:29.916Z,30.67
2019-04-04T14:09:56.167Z,30.14
2019-04-04T14:12:22.384Z,29.03
2019-04-04T14:14:48.554Z,29.38
2019-04-04T14:17:14.821Z,29.86
2019-04-04T14:19:41.044Z,30.01
2019-04-04T14:22:07.243Z,29.45
2019-04-04T14:24:33.570Z,28.55
2019-04-04T14:26:59.755Z,28.53
2019-04-04T14:29:27.654Z,28.77
2019-04-04T14:31:54.019Z,29.06
2019-04-04T14:34:20.241Z,29.08
2019-04-04T14:36:46.430Z,29.24
2019-04-04T14:39:12.700Z,28.71
2019-04-04T14:41:39.064Z,28.16
2019-04-04T14:44:05.234Z,28.28
2019-04-04T14:46:31.450Z,28.21
2019-04-04T14:48:57.552Z,27.66
2019-04-04T14:51:23.757Z,27.27
2019-04-04T14:53:50.014Z,27.14
2019-04-04T14:56:16.249Z,27.54
2019-04-04T14:58:42.385Z,27.97
2019-04-04T15:01:08.549Z,27.94
2019-04-04T15:03:34.805Z,27.58
2019-04-04T15:06:01.072Z,27.19
2019-04-04T15:08:27.241Z,27.65
2019-04-04T15:10:53.574Z,28.01
2019-04-04T15:13:20.052Z,27.76
2019-04-04T15:16:11.781Z,27.12
2019-04-04T15:18:37.976Z,26.12
2019-04-04T15:21:05.790Z,25.52
2019-04-04T15:23:32.087Z,25.41
2019-04-04T15:25:58.429Z,25.63
2019-04-04T15:28:26.094Z,26.21
2019-04-04T15:30:52.614Z,26.56
2019-04-04T15:33:18.861Z,26.58
2019-04-04T15:35:45.062Z,25.88
2019-04-04T15:38:11.245Z,24.95
2019-04-04T15:40:37.527Z,24.19
2019-04-04T15:43:03.792Z,23.92
2019-04-04T15:45:30.083Z,23.54
2019-04-04T15:47:56.292Z,23.18
2019-04-04T15:50:22.390Z,22.95
2019-04-04T15:52:48.686Z,22.80
2019-04-04T15:55:14.789Z,22.58
2019-04-04T15:57:41.002Z,22.40
2019-04-04T16:00:08.175Z,22.16
2019-04-04T16:02:34.423Z,22.02
2019-04-04T16:05:00.701Z,21.89
2019-04-04T16:07:26.996Z,21.67
2019-04-04T16:09:53.110Z,21.55
2019-04-04T16:12:19.465Z,21.32
2019-04-04T16:14:45.710Z,21.22
2019-04-04T16:17:12.167Z,21.04
2019-04-04T16:19:38.443Z,20.78
2019-04-04T16:22:04.645Z,20.60
2019-04-04T16:24:30.806Z,20.48
2019-04-04T16:26:57.029Z,20.25
2019-04-04T16:29:23.208Z,20.17
2019-04-04T16:31:49.435Z,20.06
2019-04-04T16:34:15.547Z,19.89
2019-04-04T16:36:41.866Z,19.44
2019-04-04T16:39:08.070Z,19.44
2019-04-04T16:41:34.271Z,19.32
2019-04-04T16:44:00.469Z,19.27
2019-04-04T16:46:26.718Z,19.25
2019-04-04T16:48:52.952Z,19.10
2019-04-04T16:51:19.054Z,19.03
2019-04-04T16:53:45.275Z,18.90
2019-04-04T16:56:12.570Z,18.77
2019-04-04T16:58:38.871Z,18.63
2019-04-04T17:01:05.112Z,18.48
2019-04-04T17:03:34.160Z,18.33
2019-04-04T17:06:02.291Z,18.10
2019-04-04T17:08:28.573Z,17.94
2019-04-04T17:10:54.806Z,17.81
2019-04-04T17:13:20.974Z,17.66
2019-04-04T17:15:47.173Z,17.53
2019-04-04T17:18:13.426Z,17.42
2019-04-04T17:20:39.634Z,17.32
2019-04-04T17:23:05.860Z,17.25
2019-04-04T17:25:32.036Z,17.10
2019-04-04T17:27:59.231Z,16.95
2019-04-04T17:30:25.579Z,16.81
2019-04-04T17:32:51.939Z,16.69
2019-04-04T17:35:18.331Z,16.56
2019-04-04T17:37:44.657Z,16.43
2019-04-04T17:40:11.274Z,16.30
2019-04-04T17:42:37.409Z,16.16
2019-04-04T17:45:08.114Z,15.99
2019-04-04T17:47:34.290Z,15.87
2019-04-04T17:50:00.732Z,15.71
2019-04-04T17:52:26.989Z,15.63
2019-04-04T17:54:53.226Z,15.56
2019-04-04T17:57:20.440Z,15.53
2019-04-04T17:59:46.619Z,15.35
2019-04-04T18:02:12.978Z,15.24
2019-04-04T18:04:48.206Z,15.11
2019-04-04T18:07:07.456Z,15.03
2019-04-04T18:09:33.772Z,14.95
2019-04-04T18:12:00.094Z,14.93
2019-04-04T18:14:26.203Z,14.86
2019-04-04T18:16:52.465Z,14.72
2019-04-04T18:19:18.672Z,14.63
2019-04-04T18:21:44.932Z,14.60
2019-04-04T18:24:11.047Z,14.53
2019-04-04T18:26:37.388Z,14.50
2019-04-04T18:29:03.838Z,14.41
2019-04-04T18:31:30.190Z,14.36
2019-04-04T18:33:56.491Z,14.38
2019-04-04T18:36:23.203Z,14.38
2019-04-04T18:38:49.410Z,14.32
2019-04-04T18:41:15.636Z,14.31
2019-04-04T18:43:41.854Z,14.21
2019-04-04T18:46:08.128Z,14.16
2019-04-04T18:48:34.539Z,14.16
2019-04-04T18:51:00.787Z,14.12
2019-04-04T18:53:27.944Z,14.12
2019-04-04T18:55:54.159Z,14.10
2019-04-04T18:58:20.378Z,14.08
2019-04-04T19:00:46.664Z,14.05
2019-04-04T19:03:12.874Z,14.03
2019-04-04T19:05:39.208Z,14.02
2019-04-04T19:08:05.675Z,14.07
2019-04-04T19:10:32.029Z,14.10
2019-04-04T19:13:05.186Z,14.04
2019-04-04T19:15:26.257Z,13.92
2019-04-04T19:17:52.481Z,13.73
2019-04-04T19:20:19.083Z,13.60
2019-04-04T19:22:45.360Z,13.47
2019-04-04T19:25:13.794Z,13.43
2019-04-04T19:27:40.878Z,13.38
2019-04-04T19:30:08.472Z,13.37
2019-04-04T19:32:35.009Z,13.33
2019-04-04T19:35:01.107Z,13.24
2019-04-04T19:37:27.336Z,13.13
2019-04-04T19:39:54.471Z,13.06
2019-04-04T19:42:20.820Z,13.07
2019-04-04T19:44:53.325Z,13.01
2019-04-04T19:47:15.249Z,12.93
2019-04-04T19:49:41.343Z,12.81
2019-04-04T19:52:07.611Z,12.69
2019-04-04T19:54:33.984Z,12.54
2019-04-04T19:57:00.251Z,12.37
2019-04-04T19:59:26.440Z,12.30
2019-04-04T20:01:52.540Z,12.25
2019-04-04T20:04:18.772Z,12.15
2019-04-04T20:06:45.034Z,12.10
2019-04-04T20:09:11.357Z,12.01
2019-04-04T20:11:37.570Z,11.85
2019-04-04T20:14:03.790Z,11.82
2019-04-04T20:16:29.910Z,11.80
2019-04-04T20:18:56.223Z,11.75
2019-04-04T20:21:22.431Z,11.71
2019-04-04T20:23:48.683Z,11.67
2019-04-04T20:26:19.303Z,11.60
2019-04-04T20:28:46.278Z,11.52
2019-04-04T20:31:12.526Z,11.44
2019-04-04T20:33:38.772Z,11.35
2019-04-04T20:36:04.996Z,11.28
2019-04-04T20:38:31.139Z,11.23
2019-04-04T20:40:57.420Z,11.18
2019-04-04T20:43:23.723Z,11.22
2019-04-04T20:45:50.415Z,11.22
2019-04-04T20:48:16.580Z,11.26
2019-04-04T20:50:42.842Z,11.25
2019-04-04T20:53:09.048Z,11.27
2019-04-04T20:55:35.146Z,11.23
2019-04-04T20:58:02.426Z,11.19
2019-04-04T21:00:28.580Z,11.15
2019-04-04T21:02:54.835Z,11.13
2019-04-04T21:05:20.985Z,11.12
2019-04-04T21:07:47.123Z,11.13
2019-04-04T21:10:13.374Z,11.10
2019-04-04T21:12:39.670Z,11.06
2019-04-04T21:15:06.297Z,11.03
2019-04-04T21:17:32.615Z,11.01
2019-04-04T21:19:58.783Z,11.00
2019-04-04T21:22:27.654Z,10.97
2019-04-04T21:24:53.263Z,10.92
2019-04-04T21:27:19.565Z,10.84
2019-04-04T21:29:45.726Z,10.74
2019-04-04T21:32:11.895Z,10.68
2019-04-04T21:34:38.051Z,10.61
2019-04-04T21:37:04.276Z,10.59
2019-04-04T21:39:30.528Z,10.56
2019-04-04T21:41:56.856Z,10.56
2019-04-04T21:44:22.971Z,10.54
2019-04-04T21:46:49.185Z,10.56
2019-04-04T21:49:15.339Z,10.57
2019-04-04T21:51:41.542Z,10.59
2019-04-04T21:54:07.691Z,10.63
2019-04-04T21:56:33.902Z,10.59
2019-04-04T21:59:00.113Z,10.56
2019-04-04T22:01:26.274Z,10.54
2019-04-04T22:03:53.597Z,10.54
2019-04-04T22:06:19.772Z,10.51
2019-04-04T22:08:45.966Z,10.49
2019-04-04T22:11:12.183Z,10.53
2019-04-04T22:13:38.510Z,10.55
2019-04-04T22:16:05.119Z,10.54
2019-04-04T22:18:31.337Z,10.53
2019-04-04T22:20:57.481Z,10.51
2019-04-04T22:23:23.737Z,10.50
2019-04-04T22:25:49.941Z,10.51
2019-04-04T22:28:16.264Z,10.42
2019-04-04T22:30:42.977Z,10.36
2019-04-04T22:33:09.063Z,10.32
2019-04-04T22:35:35.260Z,10.28
2019-04-04T22:38:01.567Z,10.21
2019-04-04T22:40:27.791Z,10.12
2019-04-04T22:42:53.997Z,10.12
2019-04-04T22:45:20.186Z,10.09
2019-04-04T22:47:46.357Z,10.05
2019-04-04T22:50:12.842Z,9.98
2019-04-04T22:52:39.095Z,9.96
2019-04-04T22:55:05.975Z,9.95
2019-04-04T22:57:32.239Z,9.93
2019-04-04T22:59:58.493Z,9.91
2019-04-04T23:02:25.101Z,9.85
2019-04-04T23:04:51.218Z,9.78
2019-04-04T23:07:17.451Z,9.77
2019-04-04T23:09:43.624Z,9.74
2019-04-04T23:12:09.838Z,9.72
2019-04-04T23:14:47.525Z,9.71
2019-04-04T23:17:04.041Z,9.73
2019-04-04T23:19:30.209Z,9.69
2019-04-04T23:21:56.427Z,9.66
2019-04-04T23:24:22.540Z,9.62
2019-04-04T23:26:48.787Z,9.59
2019-04-04T23:29:14.989Z,9.60
2019-04-04T23:31:41.109Z,9.62
2019-04-04T23:34:07.297Z,9.62
2019-04-04T23:36:35.269Z,9.66
2019-04-04T23:39:01.703Z,9.65
2019-04-04T23:41:29.707Z,9.63
2019-04-04T23:43:55.911Z,9.58
2019-04-04T23:46:22.135Z,9.60
2019-04-04T23:48:48.305Z,9.61
2019-04-04T23:51:14.475Z,9.68
2019-04-04T23:53:40.645Z,9.68
2019-04-04T23:56:06.806Z,9.67
2019-04-04T23:58:33.088Z,9.70
